createdAt,value
2018-12-01T00:02:13.620Z,14.10
2018-12-01T00:04:39.848Z,14.10
2018-12-01T00:07:06.083Z,14.10
2018-12-01T00:09:32.310Z,14.10
2018-12-01T00:11:58.533Z,14.10
2018-12-01T00:14:24.767Z,14.10
2018-12-01T00:16:51.009Z,14.10
2018-12-01T00:19:17.216Z,14.10
2018-12-01T00:21:43.367Z,14.10
2018-12-01T00:24:09.676Z,14.10
2018-12-01T00:26:35.833Z,14.10
2018-12-01T00:29:02.132Z,14.00
2018-12-01T00:31:28.367Z,14.10
2018-12-01T00:33:54.595Z,14.10
2018-12-01T00:36:20.820Z,14.10
2018-12-01T00:38:47.076Z,14.00
2018-12-01T00:41:13.228Z,14.00
2018-12-01T00:43:40.321Z,14.10
2018-12-01T00:46:06.551Z,14.00
2018-12-01T00:48:32.771Z,14.10
2018-12-01T00:50:59.007Z,14.10
2018-12-01T00:53:25.237Z,14.00
2018-12-01T00:55:51.466Z,14.10
2018-12-01T00:58:17.692Z,14.10
2018-12-01T01:00:43.911Z,14.10
2018-12-01T01:03:10.144Z,14.10
2018-12-01T01:05:36.387Z,14.10
2018-12-01T01:08:02.600Z,14.10
2018-12-01T01:10:28.844Z,14.10
2018-12-01T01:12:55.069Z,14.10
2018-12-01T01:15:21.223Z,14.10
2018-12-01T01:17:47.515Z,14.10
2018-12-01T01:20:13.768Z,14.00
2018-12-01T01:22:40.808Z,14.10
2018-12-01T01:25:06.184Z,14.10
2018-12-01T01:27:32.423Z,14.10
2018-12-01T01:29:58.660Z,14.10
2018-12-01T01:32:24.812Z,14.10
2018-12-01T01:34:51.111Z,14.10
2018-12-01T01:37:17.340Z,14.00
2018-12-01T01:39:43.573Z,14.00
2018-12-01T01:42:09.796Z,14.00
2018-12-01T01:44:36.027Z,14.00
2018-12-01T01:47:02.184Z,14.10
2018-12-01T01:49:28.492Z,14.10
2018-12-01T01:51:54.704Z,14.00
2018-12-01T01:54:20.944Z,14.10
2018-12-01T01:56:47.165Z,14.10
2018-12-01T01:59:13.393Z,14.10
2018-12-01T02:01:39.620Z,14.10
2018-12-01T02:04:05.844Z,14.00
2018-12-01T02:06:32.073Z,14.00
2018-12-01T02:08:58.321Z,14.00
2018-12-01T02:11:26.176Z,14.00
2018-12-01T02:13:52.400Z,14.00
2018-12-01T02:16:18.628Z,14.00
2018-12-01T02:18:44.863Z,14.00
2018-12-01T02:21:11.100Z,14.00
2018-12-01T02:23:37.371Z,14.00
2018-12-01T02:26:03.746Z,14.00
2018-12-01T02:28:29.981Z,14.00
2018-12-01T02:30:56.196Z,14.00
2018-12-01T02:33:22.433Z,14.00
2018-12-01T02:35:48.664Z,13.90
2018-12-01T02:38:14.889Z,13.90
2018-12-01T02:40:41.120Z,13.90
2018-12-01T02:43:07.356Z,13.90
2018-12-01T02:45:33.573Z,13.90
2018-12-01T02:47:59.800Z,13.90
2018-12-01T02:50:26.033Z,14.00
2018-12-01T02:52:52.261Z,14.00
2018-12-01T02:55:24.419Z,14.00
2018-12-01T02:57:50.726Z,13.90
2018-12-01T03:00:17.157Z,13.90
2018-12-01T03:02:43.515Z,13.90
2018-12-01T03:05:09.757Z,13.90
2018-12-01T03:07:35.977Z,13.90
2018-12-01T03:10:02.200Z,13.90
2018-12-01T03:12:28.431Z,14.00
2018-12-01T03:14:54.652Z,13.90
2018-12-01T03:17:20.890Z,13.90
2018-12-01T03:19:47.120Z,13.90
2018-12-01T03:22:13.339Z,13.90
2018-12-01T03:24:39.573Z,13.90
2018-12-01T03:27:05.806Z,13.90
2018-12-01T03:29:32.028Z,13.90
2018-12-01T03:31:58.172Z,13.90
2018-12-01T03:34:24.495Z,13.90
2018-12-01T03:36:50.715Z,13.90
2018-12-01T03:39:16.950Z,13.90
2018-12-01T03:41:43.165Z,13.90
2018-12-01T03:44:09.404Z,13.90
2018-12-01T03:46:35.620Z,13.90
2018-12-01T03:49:01.848Z,13.90
2018-12-01T03:51:28.078Z,13.90
2018-12-01T03:53:54.303Z,13.90
2018-12-01T03:56:20.600Z,13.90
2018-12-01T03:58:46.967Z,13.80
2018-12-01T04:01:13.195Z,13.80
2018-12-01T04:03:39.435Z,13.90
2018-12-01T04:06:05.653Z,13.90
2018-12-01T04:08:31.880Z,13.90
2018-12-01T04:10:58.118Z,13.90
2018-12-01T04:13:24.333Z,13.90
2018-12-01T04:15:50.596Z,13.90
2018-12-01T04:18:16.797Z,13.90
2018-12-01T04:20:43.032Z,13.80
2018-12-01T04:23:09.256Z,13.90
2018-12-01T04:25:35.480Z,13.90
2018-12-01T04:28:02.090Z,13.90
2018-12-01T04:30:28.284Z,13.80
2018-12-01T04:32:54.589Z,13.80
2018-12-01T04:35:20.806Z,13.90
2018-12-01T04:37:47.108Z,13.80
2018-12-01T04:40:13.464Z,13.80
2018-12-01T04:42:39.621Z,13.80
2018-12-01T04:45:05.925Z,13.80
2018-12-01T04:47:32.155Z,13.80
2018-12-01T04:49:58.376Z,13.90
2018-12-01T04:52:24.617Z,13.90
2018-12-01T04:54:50.828Z,13.90
2018-12-01T04:57:17.055Z,13.90
2018-12-01T04:59:43.279Z,13.90
2018-12-01T05:02:09.508Z,13.90
2018-12-01T05:04:35.660Z,13.80
2018-12-01T05:07:02.047Z,13.80
2018-12-01T05:09:28.412Z,13.80
2018-12-01T05:11:54.640Z,13.80
2018-12-01T05:14:20.860Z,13.80
2018-12-01T05:16:47.091Z,13.80
2018-12-01T05:19:13.320Z,13.80
2018-12-01T05:21:39.557Z,13.80
2018-12-01T05:24:05.776Z,13.70
2018-12-01T05:26:31.995Z,13.70
2018-12-01T05:28:58.233Z,13.70
2018-12-01T05:31:24.460Z,13.70
2018-12-01T05:33:50.683Z,13.80
2018-12-01T05:36:16.919Z,13.80
2018-12-01T05:38:43.147Z,13.80
2018-12-01T05:41:09.367Z,13.90
2018-12-01T05:43:35.596Z,13.80
2018-12-01T05:46:01.819Z,13.90
2018-12-01T05:48:28.055Z,13.80
2018-12-01T05:50:54.284Z,13.80
2018-12-01T05:53:20.512Z,13.80
2018-12-01T05:55:46.735Z,13.80
2018-12-01T05:58:12.968Z,13.80
2018-12-01T06:00:39.191Z,13.80
2018-12-01T06:03:05.347Z,13.80
2018-12-01T06:05:31.652Z,13.70
2018-12-01T06:07:57.883Z,13.70
2018-12-01T06:10:24.108Z,13.80
2018-12-01T06:12:50.368Z,13.80
2018-12-01T06:15:18.209Z,13.80
2018-12-01T06:17:44.372Z,13.80
2018-12-01T06:20:11.482Z,13.80
2018-12-01T06:22:37.707Z,13.80
2018-12-01T06:25:03.933Z,13.80
2018-12-01T06:27:30.157Z,13.80
2018-12-01T06:29:56.308Z,13.80
2018-12-01T06:32:22.623Z,13.80
2018-12-01T06:34:48.840Z,13.90
2018-12-01T06:37:14.988Z,13.90
2018-12-01T06:39:41.220Z,13.90
2018-12-01T06:42:07.567Z,14.00
2018-12-01T06:44:33.764Z,14.00
2018-12-01T06:46:59.979Z,14.00
2018-12-01T06:49:26.217Z,14.00
2018-12-01T06:51:52.448Z,14.00
2018-12-01T06:54:18.668Z,13.90
2018-12-01T06:56:44.909Z,13.90
2018-12-01T06:59:11.065Z,13.90
2018-12-01T07:01:37.218Z,13.90
2018-12-01T07:04:03.588Z,13.90
2018-12-01T07:06:29.732Z,13.90
2018-12-01T07:08:56.052Z,13.80
2018-12-01T07:11:22.264Z,13.80
2018-12-01T07:13:48.504Z,13.90
2018-12-01T07:16:14.721Z,13.90
2018-12-01T07:18:40.955Z,13.80
2018-12-01T07:21:07.180Z,13.80
2018-12-01T07:23:33.403Z,13.80
2018-12-01T07:25:59.551Z,13.70
2018-12-01T07:28:25.727Z,13.70
2018-12-01T07:30:52.103Z,13.80
2018-12-01T07:33:18.323Z,13.80
2018-12-01T07:35:44.556Z,13.80
2018-12-01T07:38:10.771Z,13.90
2018-12-01T07:40:37.007Z,13.90
2018-12-01T07:43:03.227Z,13.90
2018-12-01T07:45:29.488Z,14.00
2018-12-01T07:47:55.692Z,14.00
2018-12-01T07:50:21.916Z,14.00
2018-12-01T07:52:48.075Z,13.90
2018-12-01T07:55:14.370Z,13.90
2018-12-01T07:57:40.604Z,13.90
2018-12-01T08:00:06.832Z,13.80
2018-12-01T08:02:33.064Z,13.70
2018-12-01T08:04:59.288Z,13.80
2018-12-01T08:07:25.524Z,13.80
2018-12-01T08:09:51.736Z,13.80
2018-12-01T08:12:17.970Z,13.80
2018-12-01T08:14:44.197Z,13.80
2018-12-01T08:17:10.429Z,13.80
2018-12-01T08:19:36.856Z,13.80
2018-12-01T08:22:03.088Z,13.80
2018-12-01T08:24:29.315Z,13.90
2018-12-01T08:26:55.539Z,13.80
2018-12-01T08:29:21.775Z,13.80
2018-12-01T08:31:48.000Z,13.80
2018-12-01T08:34:14.235Z,13.80
2018-12-01T08:36:40.427Z,13.80
2018-12-01T08:39:07.513Z,13.80
2018-12-01T08:41:33.736Z,13.80
2018-12-01T08:43:59.883Z,13.80
2018-12-01T08:46:26.028Z,13.80
2018-12-01T08:48:52.204Z,13.80
2018-12-01T08:51:18.436Z,13.80
2018-12-01T08:53:44.669Z,13.80
2018-12-01T08:56:10.897Z,13.80
2018-12-01T08:58:37.121Z,13.80
2018-12-01T09:01:03.273Z,13.80
2018-12-01T09:03:29.591Z,13.80
2018-12-01T09:05:55.804Z,13.80
2018-12-01T09:08:22.076Z,13.70
2018-12-01T09:10:48.277Z,13.70
2018-12-01T09:13:14.497Z,13.80
2018-12-01T09:15:40.717Z,13.80
2018-12-01T09:18:06.956Z,13.80
2018-12-01T09:20:33.178Z,13.80
2018-12-01T09:22:59.403Z,13.80
2018-12-01T09:25:25.548Z,13.80
2018-12-01T09:27:51.863Z,13.80
2018-12-01T09:30:18.087Z,13.80
2018-12-01T09:32:44.316Z,13.80
2018-12-01T09:35:10.480Z,13.80
2018-12-01T09:37:36.796Z,13.80
2018-12-01T09:40:02.949Z,13.80
2018-12-01T09:42:29.224Z,13.80
2018-12-01T09:44:55.387Z,13.80
2018-12-01T09:47:21.700Z,13.80
2018-12-01T09:49:47.848Z,13.80
2018-12-01T09:52:14.144Z,13.90
2018-12-01T09:54:40.288Z,13.90
2018-12-01T09:57:06.606Z,14.00
2018-12-01T09:59:32.831Z,14.00
2018-12-01T10:01:58.984Z,14.00
2018-12-01T10:04:25.286Z,14.00
2018-12-01T10:06:51.518Z,14.00
2018-12-01T10:09:17.740Z,14.10
2018-12-01T10:11:43.963Z,14.10
2018-12-01T10:14:10.107Z,14.10
2018-12-01T10:16:36.424Z,14.10
2018-12-01T10:19:02.652Z,14.10
2018-12-01T10:21:28.875Z,14.10
2018-12-01T10:23:55.111Z,14.10
2018-12-01T10:26:21.337Z,14.10
2018-12-01T10:28:47.565Z,14.10
2018-12-01T10:31:13.712Z,14.00
2018-12-01T10:33:40.023Z,14.00
2018-12-01T10:36:06.247Z,14.10
2018-12-01T10:38:32.392Z,14.10
2018-12-01T10:40:58.707Z,14.10
2018-12-01T10:43:24.936Z,14.10
2018-12-01T10:45:51.167Z,14.10
2018-12-01T10:48:17.383Z,14.10
2018-12-01T10:50:43.615Z,14.10
2018-12-01T10:53:09.842Z,14.10
2018-12-01T10:55:36.073Z,14.00
2018-12-01T10:58:02.295Z,14.00
2018-12-01T11:00:28.536Z,14.00
2018-12-01T11:02:55.733Z,14.00
2018-12-01T11:05:20.993Z,14.00
2018-12-01T11:07:47.217Z,14.00
2018-12-01T11:10:13.445Z,14.00
2018-12-01T11:12:39.676Z,14.00
2018-12-01T11:15:05.908Z,13.90
2018-12-01T11:17:32.124Z,13.90
2018-12-01T11:19:58.353Z,14.00
2018-12-01T11:22:24.590Z,14.00
2018-12-01T11:24:50.809Z,14.00
2018-12-01T11:27:17.036Z,14.00
2018-12-01T11:29:43.265Z,14.00
2018-12-01T11:32:09.416Z,14.00
2018-12-01T11:34:35.729Z,14.10
2018-12-01T11:37:01.888Z,14.10
2018-12-01T11:39:28.176Z,14.00
2018-12-01T11:41:54.320Z,14.00
2018-12-01T11:44:20.649Z,14.00
2018-12-01T11:46:46.940Z,14.10
2018-12-01T11:49:13.302Z,14.10
2018-12-01T11:51:39.528Z,14.10
2018-12-01T11:54:05.748Z,14.10
2018-12-01T11:56:31.982Z,14.10
2018-12-01T11:58:58.203Z,14.10
2018-12-01T12:01:24.439Z,14.10
2018-12-01T12:03:50.611Z,14.10
2018-12-01T12:06:16.888Z,14.10
2018-12-01T12:08:43.117Z,14.10
2018-12-01T12:11:09.272Z,14.10
2018-12-01T12:13:35.424Z,14.10
2018-12-01T12:16:01.570Z,14.10
2018-12-01T12:18:28.992Z,14.20
2018-12-01T12:20:56.519Z,14.10
2018-12-01T12:23:22.739Z,14.10
2018-12-01T12:25:48.967Z,14.20
2018-12-01T12:28:15.199Z,14.20
2018-12-01T12:30:41.343Z,14.20
2018-12-01T12:33:07.656Z,14.30
2018-12-01T12:35:33.887Z,14.40
2018-12-01T12:38:00.035Z,14.40
2018-12-01T12:40:26.340Z,14.50
2018-12-01T12:42:52.565Z,14.60
2018-12-01T12:45:18.836Z,14.60
2018-12-01T12:47:45.031Z,14.60
2018-12-01T12:50:11.263Z,14.70
2018-12-01T12:52:37.489Z,14.80
2018-12-01T12:55:03.716Z,14.80
2018-12-01T12:57:29.936Z,14.90
2018-12-01T12:59:56.177Z,15.00
2018-12-01T13:02:22.392Z,15.00
2018-12-01T13:04:48.619Z,15.10
2018-12-01T13:07:14.843Z,15.20
2018-12-01T13:09:40.991Z,15.20
2018-12-01T13:12:07.311Z,15.20
2018-12-01T13:14:33.468Z,15.30
2018-12-01T13:16:59.760Z,15.40
2018-12-01T13:19:25.987Z,15.40
2018-12-01T13:21:52.230Z,15.40
2018-12-01T13:24:18.445Z,15.40
2018-12-01T13:26:44.671Z,15.50
2018-12-01T13:29:10.906Z,15.60
2018-12-01T13:31:37.127Z,15.60
2018-12-01T13:34:03.384Z,15.60
2018-12-01T13:36:29.596Z,15.70
2018-12-01T13:38:55.842Z,15.70
2018-12-01T13:41:22.052Z,15.70
2018-12-01T13:43:48.558Z,15.80
2018-12-01T13:46:14.908Z,15.80
2018-12-01T13:48:41.144Z,15.80
2018-12-01T13:51:07.378Z,15.90
2018-12-01T13:53:33.606Z,15.90
2018-12-01T13:55:59.767Z,15.90
2018-12-01T13:58:25.930Z,16.00
2018-12-01T14:00:52.086Z,16.00
2018-12-01T14:03:18.244Z,16.00
2018-12-01T14:05:44.543Z,16.00
2018-12-01T14:08:10.761Z,16.10
2018-12-01T14:10:36.992Z,16.10
2018-12-01T14:13:03.228Z,16.20
2018-12-01T14:15:29.456Z,16.20
2018-12-01T14:17:55.675Z,16.20
2018-12-01T14:20:21.901Z,16.20
2018-12-01T14:22:48.127Z,16.20
2018-12-01T14:25:14.364Z,16.20
2018-12-01T14:27:40.585Z,16.20
2018-12-01T14:30:06.823Z,16.20
2018-12-01T14:32:33.043Z,16.20
2018-12-01T14:34:59.291Z,16.20
2018-12-01T14:37:25.504Z,16.20
2018-12-01T14:39:51.764Z,16.20
2018-12-01T14:42:17.968Z,16.30
2018-12-01T14:44:44.112Z,16.30
2018-12-01T14:47:10.267Z,16.40
2018-12-01T14:49:37.255Z,16.40
2018-12-01T14:52:03.483Z,16.40
2018-12-01T14:54:29.729Z,16.50
2018-12-01T14:56:55.962Z,16.50
2018-12-01T14:59:22.117Z,16.50
2018-12-01T15:01:48.396Z,16.50
2018-12-01T15:04:14.539Z,16.60
2018-12-01T15:06:40.864Z,16.60
2018-12-01T15:09:07.009Z,16.60
2018-12-01T15:11:33.325Z,16.60
2018-12-01T15:13:59.547Z,16.60
2018-12-01T15:16:25.699Z,16.70
2018-12-01T15:18:51.848Z,16.70
2018-12-01T15:21:18.023Z,16.70
2018-12-01T15:23:44.256Z,16.70
2018-12-01T15:26:10.441Z,16.70
2018-12-01T15:28:37.533Z,16.80
2018-12-01T15:31:03.684Z,16.70
2018-12-01T15:33:29.988Z,16.80
2018-12-01T15:35:56.216Z,16.80
2018-12-01T15:38:22.448Z,16.80
2018-12-01T15:40:48.606Z,16.80
2018-12-01T15:43:14.895Z,16.80
2018-12-01T15:45:41.043Z,16.80
2018-12-01T15:48:07.360Z,16.80
2018-12-01T15:50:33.516Z,16.90
2018-12-01T15:52:59.676Z,16.90
2018-12-01T15:55:26.049Z,16.90
2018-12-01T15:57:52.276Z,17.00
2018-12-01T16:00:18.420Z,17.00
2018-12-01T16:02:44.737Z,17.00
2018-12-01T16:05:11.028Z,17.00
2018-12-01T16:07:37.437Z,17.00
2018-12-01T16:10:03.624Z,17.00
2018-12-01T16:12:29.840Z,17.00
2018-12-01T16:14:56.068Z,17.00
2018-12-01T16:17:22.313Z,17.00
2018-12-01T16:19:48.534Z,17.00
2018-12-01T16:22:14.756Z,17.00
2018-12-01T16:24:43.036Z,17.10
2018-12-01T16:27:09.276Z,17.10
2018-12-01T16:29:35.483Z,17.10
2018-12-01T16:32:01.720Z,17.10
2018-12-01T16:34:27.948Z,17.20
2018-12-01T16:36:54.104Z,17.20
2018-12-01T16:39:20.405Z,17.10
2018-12-01T16:41:48.888Z,17.20
2018-12-01T16:44:15.041Z,17.20
2018-12-01T16:46:41.196Z,17.20
2018-12-01T16:49:07.580Z,17.20
2018-12-01T16:51:33.799Z,17.20
2018-12-01T16:54:00.040Z,17.20
2018-12-01T16:56:30.967Z,17.10
2018-12-01T16:58:57.141Z,17.20
2018-12-01T17:01:23.423Z,17.10
2018-12-01T17:03:49.590Z,17.00
2018-12-01T17:06:15.876Z,16.90
2018-12-01T17:08:42.107Z,16.80
2018-12-01T17:11:08.346Z,16.80
2018-12-01T17:13:34.563Z,16.70
2018-12-01T17:16:00.791Z,16.60
2018-12-01T17:18:27.032Z,16.60
2018-12-01T17:20:53.176Z,16.60
2018-12-01T17:23:19.486Z,16.50
2018-12-01T17:25:45.713Z,16.50
2018-12-01T17:28:11.933Z,16.40
2018-12-01T17:30:38.163Z,16.40
2018-12-01T17:33:04.915Z,16.40
2018-12-01T17:35:31.069Z,16.40
2018-12-01T17:37:57.225Z,16.30
2018-12-01T17:40:24.315Z,16.30
2018-12-01T17:42:51.145Z,16.30
2018-12-01T17:45:16.756Z,16.20
2018-12-01T17:47:42.987Z,16.20
2018-12-01T17:50:09.136Z,16.20
2018-12-01T17:52:35.440Z,16.20
2018-12-01T17:55:01.684Z,16.10
2018-12-01T17:57:27.913Z,16.10
2018-12-01T17:59:54.132Z,16.10
2018-12-01T18:02:20.364Z,16.10
2018-12-01T18:04:46.664Z,16.10
2018-12-01T18:07:13.015Z,16.00
2018-12-01T18:09:39.175Z,16.10
2018-12-01T18:12:05.485Z,16.00
2018-12-01T18:14:31.711Z,16.00
2018-12-01T18:16:57.928Z,16.00
2018-12-01T18:19:24.077Z,16.00
2018-12-01T18:21:50.223Z,16.00
2018-12-01T18:24:16.372Z,16.00
2018-12-01T18:26:43.460Z,16.00
2018-12-01T18:29:09.693Z,16.00
2018-12-01T18:31:35.924Z,16.00
2018-12-01T18:34:02.156Z,15.90
2018-12-01T18:36:28.380Z,15.90
2018-12-01T18:38:54.617Z,16.00
2018-12-01T18:41:20.840Z,16.00
2018-12-01T18:43:47.059Z,16.00
2018-12-01T18:46:13.208Z,15.90
2018-12-01T18:48:39.525Z,15.90
2018-12-01T18:51:05.738Z,15.90
2018-12-01T18:53:31.973Z,15.90
2018-12-01T18:55:58.209Z,15.90
2018-12-01T18:58:24.432Z,15.90
2018-12-01T19:00:50.665Z,15.90
2018-12-01T19:03:16.982Z,15.90
2018-12-01T19:05:43.128Z,15.90
2018-12-01T19:08:09.354Z,15.90
2018-12-01T19:10:35.571Z,15.90
2018-12-01T19:13:01.800Z,15.90
2018-12-01T19:15:28.024Z,15.90
2018-12-01T19:17:54.255Z,15.90
2018-12-01T19:20:20.479Z,15.90
2018-12-01T19:22:46.756Z,15.90
2018-12-01T19:25:12.949Z,15.90
2018-12-01T19:27:39.168Z,15.80
2018-12-01T19:30:05.544Z,15.80
2018-12-01T19:32:33.116Z,15.90
2018-12-01T19:34:59.280Z,15.90
2018-12-01T19:37:27.272Z,15.80
2018-12-01T19:39:52.565Z,15.80
2018-12-01T19:42:18.797Z,15.80
2018-12-01T19:44:45.015Z,15.90
2018-12-01T19:47:11.164Z,15.90
2018-12-01T19:49:37.540Z,15.90
2018-12-01T19:52:03.724Z,15.80
2018-12-01T19:54:29.932Z,15.90
2018-12-01T19:56:56.080Z,15.80
2018-12-01T19:59:22.385Z,15.90
2018-12-01T20:01:48.544Z,15.80
2018-12-01T20:04:14.691Z,15.80
2018-12-01T20:06:40.868Z,15.90
2018-12-01T20:09:07.111Z,15.80
2018-12-01T20:11:33.334Z,15.90
2018-12-01T20:13:59.561Z,15.90
2018-12-01T20:16:25.784Z,15.90
2018-12-01T20:18:51.935Z,15.90
2018-12-01T20:21:18.108Z,15.90
2018-12-01T20:23:44.469Z,15.90
2018-12-01T20:26:10.712Z,15.90
2018-12-01T20:28:36.889Z,15.90
2018-12-01T20:31:03.977Z,15.90
2018-12-01T20:33:30.195Z,15.90
2018-12-01T20:35:56.421Z,15.90
2018-12-01T20:38:22.718Z,15.90
2018-12-01T20:40:48.887Z,15.90
2018-12-01T20:43:15.110Z,16.00
2018-12-01T20:45:41.343Z,15.90
2018-12-01T20:48:07.576Z,15.90
2018-12-01T20:50:33.805Z,15.90
2018-12-01T20:52:59.980Z,15.90
2018-12-01T20:55:26.160Z,15.90
2018-12-01T20:57:52.505Z,15.90
2018-12-01T21:00:18.803Z,15.90
2018-12-01T21:02:44.977Z,15.90
2018-12-01T21:05:11.267Z,15.90
2018-12-01T21:07:37.499Z,15.90
2018-12-01T21:10:03.727Z,16.00
2018-12-01T21:12:29.951Z,15.90
2018-12-01T21:14:56.171Z,16.00
2018-12-01T21:17:22.452Z,16.00
2018-12-01T21:19:50.271Z,15.90
2018-12-01T21:22:16.568Z,16.00
2018-12-01T21:24:42.934Z,16.00
2018-12-01T21:27:09.159Z,16.00
2018-12-01T21:29:35.398Z,16.00
2018-12-01T21:32:01.903Z,16.00
2018-12-01T21:34:28.255Z,16.00
2018-12-01T21:36:54.497Z,15.90
2018-12-01T21:39:20.736Z,16.00
2018-12-01T21:41:47.401Z,16.00
2018-12-01T21:44:13.785Z,16.00
2018-12-01T21:46:39.949Z,16.00
2018-12-01T21:49:06.240Z,16.00
2018-12-01T21:51:32.478Z,16.00
2018-12-01T21:53:58.714Z,16.00
2018-12-01T21:56:24.931Z,16.00
2018-12-01T21:58:51.151Z,15.90
2018-12-01T22:01:17.313Z,16.00
2018-12-01T22:03:43.622Z,15.90
2018-12-01T22:06:09.788Z,15.90
2018-12-01T22:08:36.068Z,15.90
2018-12-01T22:11:02.249Z,15.90
2018-12-01T22:13:29.264Z,15.90
2018-12-01T22:15:55.586Z,15.90
2018-12-01T22:18:21.817Z,15.90
2018-12-01T22:20:48.036Z,15.90
2018-12-01T22:23:14.260Z,15.90
2018-12-01T22:25:40.483Z,15.90
2018-12-01T22:28:06.721Z,15.90
2018-12-01T22:30:32.940Z,15.90
2018-12-01T22:32:59.176Z,15.90
2018-12-01T22:35:25.392Z,15.90
2018-12-01T22:37:51.540Z,15.90
2018-12-01T22:40:17.852Z,15.80
2018-12-01T22:42:44.084Z,15.80
2018-12-01T22:45:10.315Z,15.80
2018-12-01T22:47:36.541Z,15.80
2018-12-01T22:50:02.765Z,15.80
2018-12-01T22:52:29.002Z,15.80
2018-12-01T22:54:55.160Z,15.80
2018-12-01T22:57:21.462Z,15.80
2018-12-01T22:59:47.694Z,15.80
2018-12-01T23:02:13.852Z,15.80
2018-12-01T23:04:40.212Z,15.80
2018-12-01T23:07:06.398Z,15.80
2018-12-01T23:09:34.073Z,15.80
2018-12-01T23:12:00.256Z,15.80
2018-12-01T23:14:26.497Z,15.80
2018-12-01T23:16:52.712Z,15.80
2018-12-01T23:19:18.935Z,15.80
2018-12-01T23:21:45.163Z,15.80
2018-12-01T23:24:11.400Z,15.80
2018-12-01T23:26:37.969Z,15.80
2018-12-01T23:29:04.111Z,15.80
2018-12-01T23:31:30.291Z,15.80
2018-12-01T23:33:56.512Z,15.80
2018-12-01T23:36:22.745Z,15.80
2018-12-01T23:38:48.976Z,15.80
2018-12-01T23:41:15.214Z,15.80
2018-12-01T23:43:41.431Z,15.80
2018-12-01T23:46:07.632Z,15.80
2018-12-01T23:48:33.893Z,15.80
2018-12-01T23:51:00.120Z,15.80
2018-12-01T23:53:26.301Z,15.80
2018-12-01T23:55:53.392Z,15.80
2018-12-01T23:58:19.626Z,15.80
